Flight Track Log - Related Links

Times and Time Zones

All times are in EDT time to prevent confusion due to time zone crossing. See the TCF5993 flight status page for this flight to view local times or setup timezone preferences in your user account.

Time Position Orientation Groundspeed Altitude Reporting Facility
EDT Latitude Longitude Course Direction KTS MPH feet Rate Location/Type
Sun 03:19:38 PM 40.7500 -73.8333 304° West 152 175 1,600  Level New York TRACON
Sun 03:20:38 PM 40.7500 -73.8000 90° East 216 249 3,500 2,200 Climbing New York TRACON
Sun 03:21:38 PM 40.8167 -73.7500 30° Northeast 239 275 6,000 2,650 Climbing New York TRACON
Sun 03:22:00 PM 40.9710 -74.3087 304° West  Level FlightAware Approximate
Sun 03:22:38 PM 40.8667 -73.7833 333° Northwest 266 306 8,800  Level New York TRACON
Sun 03:23:00 PM 41.0227 -74.4275 299° West  Level FlightAware Approximate
Sun 03:23:38 PM 40.9167 -73.8667 308° West 291 335 11,000  Level New York TRACON
Sun 03:24:00 PM 41.0735 -74.5471 304° West  Level FlightAware Approximate
Sun 03:24:38 PM 40.9667 -73.9500 308° West 318 366 13,400  Level New York TRACON
Sun 03:25:43 PM 41.0333 -74.0500 311° West 324 373 15,800 1,238 Climbing New York TRACON
Sun 03:26:44 PM 41.0833 -74.1500 304° West 328 377 16,000 73 Climbing New York TRACON
Sun 03:28:28 PM 41.1031 -74.3533 277° West 347 399 16,000  Level New York Center
Sun 03:29:29 PM 41.1144 -74.4586 278° West 329 379 16,000  Level New York Center
Sun 03:30:29 PM 41.1269 -74.5861 277° West 329 379 16,000  Level New York Center
Sun 03:31:27 PM 41.1381 -74.6914 278° West 329 379 16,000 555 Level New York Center
Sun 03:32:28 PM 41.1842 -74.8069 298° West 318 366 17,100 1,488 Climbing New York Center
Sun 03:33:28 PM 41.2267 -74.9033 300° West 333 383 19,000 2,100 Climbing New York Center
Sun 03:34:28 PM 41.2731 -75.0111 300° West 341 392 21,300 2,132 Climbing New York Center
Sun 03:35:29 PM 41.3208 -75.1247 299° West 341 392 23,300 1,835 Climbing New York Center
Sun 03:36:29 PM 41.3708 -75.2383 300° West 346 398 25,000 1,729 Climbing New York Center
Sun 03:37:27 PM 41.4222 -75.3608 299° West 358 412 26,700 1,563 Climbing New York Center
Sun 03:38:28 PM 41.4739 -75.4806 300° West 371 427 28,100 1,339 Climbing New York Center
Sun 03:39:28 PM 41.5125 -75.6108 292° West 376 433 29,400 1,250 Climbing New York Center
Sun 03:40:28 PM 41.5508 -75.7411 292° West 381 438 30,600 1,388 Climbing New York Center
Sun 03:41:29 PM 41.5889 -75.8742 291° West 381 438 32,200 1,328 Climbing New York Center
Sun 03:42:30 PM 41.6231 -75.9989 290° West 376 433 33,300 1,059 Climbing New York Center
Sun 03:43:28 PM 41.6608 -76.1297 291° West 376 433 34,300 1,026 Climbing New York Center
Sun 03:44:27 PM 41.6986 -76.2606 291° West 376 433 35,300 857 Climbing New York Center
Sun 03:45:27 PM 41.7303 -76.3853 289° West 371 427 36,000 249 Climbing New York Center
Sun 03:47:16 PM 41.8028 -76.6467 290° West 384 442 36,000  Level Cleveland Center
Sun 03:48:16 PM 41.8408 -76.7839 290° West 394 453 36,000  Level Cleveland Center
Sun 03:49:16 PM 41.8808 -76.9211 291° West 394 453 36,000  Level Cleveland Center
Sun 03:50:16 PM 41.9164 -77.0614 289° West 399 459 36,000  Level Cleveland Center
Sun 03:51:16 PM 41.9561 -77.1989 291° West 399 459 36,000  Level Cleveland Center
Sun 03:52:16 PM 41.9911 -77.3339 289° West 399 459 36,000  Level Cleveland Center
Sun 03:53:16 PM 42.0306 -77.4744 291° West 399 459 36,000  Level Cleveland Center
Sun 03:54:16 PM 42.0656 -77.6128 289° West 399 459 36,000  Level Cleveland Center
Sun 03:56:16 PM 42.1389 -77.8892 290° West 399 459 36,000  Level Cleveland Center
Sun 03:57:16 PM 42.1756 -78.0278 290° West 399 459 36,000  Level Cleveland Center
Sun 03:58:16 PM 42.2119 -78.1667 290° West 399 459 36,000  Level Cleveland Center
Sun 03:59:16 PM 42.2481 -78.3111 289° West 399 459 36,000  Level Cleveland Center
Sun 04:00:16 PM 42.2864 -78.4586 289° West 404 465 36,000  Level Cleveland Center
Sun 04:01:16 PM 42.3222 -78.6033 289° West 404 465 36,000  Level Cleveland Center
Sun 04:02:16 PM 42.3600 -78.7428 290° West 404 465 36,000  Level Cleveland Center
Sun 04:03:16 PM 42.3956 -78.8878 288° West 404 465 36,000  Level Cleveland Center
Sun 04:04:16 PM 42.4267 -79.0164 288° West 404 465 36,000  Level Cleveland Center
Sun 04:05:16 PM 42.4703 -79.1758 290° West 404 465 36,000  Level Cleveland Center
Sun 04:06:16 PM 42.4972 -79.3244 284° West 404 465 36,000  Level Cleveland Center
Sun 04:07:16 PM 42.5028 -79.4764 273° West 404 465 36,000  Level Cleveland Center
Sun 04:08:16 PM 42.5083 -79.6283 273° West 404 465 36,000  Level Cleveland Center
Sun 04:09:16 PM 42.5200 -79.7775 276° West 404 465 36,000  Level Cleveland Center
Sun 04:10:16 PM 42.5250 -79.9297 273° West 404 465 36,000  Level Cleveland Center
Sun 04:11:16 PM 42.5278 -80.0817 271° West 404 465 36,000  Level Cleveland Center
Sun 04:12:16 PM 42.5325 -80.2169 273° West 404 465 36,000  Level Cleveland Center
Sun 04:13:16 PM 42.5392 -80.3692 273° West 404 465 36,000  Level Cleveland Center
Sun 04:14:16 PM 42.5456 -80.5183 273° West 399 459 36,000  Level Cleveland Center
Sun 04:15:16 PM 42.5539 -80.6706 274° West 405 466 36,000  Level Cleveland Center
Sun 04:16:16 PM 42.5581 -80.8144 272° West 395 455 36,000  Level Cleveland Center
Sun 04:17:16 PM 42.5639 -80.9694 273° West 400 460 36,000  Level Cleveland Center
Sun 04:18:16 PM 42.5672 -81.1189 272° West 400 460 36,000  Level Cleveland Center
Sun 04:19:16 PM 42.5728 -81.2711 273° West 405 466 36,000  Level Cleveland Center
Sun 04:20:16 PM 42.5800 -81.4403 273° West 405 466 36,000  Level Cleveland Center
Sun 04:21:16 PM 42.6058 -81.5903 283° West 405 466 36,000  Level Cleveland Center
Sun 04:22:16 PM 42.6336 -81.7403 284° West 412 474 36,000  Level Cleveland Center
Sun 04:23:16 PM 42.6572 -81.8733 284° West 412 474 36,000  Level Cleveland Center
Sun 04:24:16 PM 42.6844 -82.0264 284° West 412 474 36,000  Level Cleveland Center
Sun 04:25:16 PM 42.7097 -82.1825 282° West 412 474 36,000  Level Cleveland Center
Sun 04:26:16 PM 42.7344 -82.3358 282° West 412 474 36,000  Level Cleveland Center
Sun 04:27:16 PM 42.7592 -82.4892 282° West 412 474 36,000  Level Cleveland Center
Sun 04:28:16 PM 42.7858 -82.6400 284° West 412 474 36,000  Level Cleveland Center
Sun 04:29:16 PM 42.8122 -82.7881 284° West 412 474 36,000  Level Cleveland Center
Sun 04:30:16 PM 42.8361 -82.9417 282° West 412 474 36,000  Level Cleveland Center
Sun 04:31:16 PM 42.8600 -83.0928 282° West 417 480 36,000  Level Cleveland Center
Sun 04:32:16 PM 42.8839 -83.2439 282° West 411 473 36,000  Level Cleveland Center
Sun 04:33:16 PM 42.9094 -83.3981 283° West 416 479 36,000  Level Cleveland Center
Sun 04:34:16 PM 42.9347 -83.5525 283° West 416 479 36,000  Level Cleveland Center
Sun 04:35:16 PM 42.9597 -83.7039 283° West 416 479 36,000  Level Cleveland Center
Sun 04:36:16 PM 42.9764 -83.8608 278° West 416 479 36,000  Level Cleveland Center
Sun 04:37:16 PM 42.9906 -84.0178 277° West 416 479 36,000  Level Cleveland Center
Sun 04:38:16 PM 43.0047 -84.1692 277° West 411 473 36,000  Level Cleveland Center
Sun 04:39:16 PM 43.0206 -84.3233 278° West 411 473 36,000  Level Cleveland Center
Sun 04:39:53 PM 43.0300 -84.4183 278° West 415 478 36,000  Level Chicago Center
Sun 04:40:55 PM 43.0447 -84.5747 277° West 416 479 36,000  Level Chicago Center
Sun 04:41:58 PM 43.0619 -84.7603 277° West 412 474 36,000  Level Chicago Center
Sun 04:43:00 PM 43.0758 -84.9161 277° West 414 476 36,000  Level Chicago Center
Sun 04:44:02 PM 43.0894 -85.0672 277° West 403 464 36,000 -387 Level Chicago Center
Sun 04:45:04 PM 43.1011 -85.2192 276° West 403 464 35,200 -919 Descending Chicago Center
Sun 04:46:06 PM 43.1136 -85.3669 277° West 393 452 34,100 -1,258 Descending Chicago Center
Sun 04:47:08 PM 43.1264 -85.5167 277° West 398 458 32,600 -1,597 Descending Chicago Center
Sun 04:48:10 PM 43.1419 -85.6969 277° West 400 460 30,800 -1,645 Descending Chicago Center
Sun 04:49:12 PM 43.1539 -85.8428 276° West 395 455 29,200 -1,645 Descending Chicago Center
Sun 04:50:14 PM 43.1661 -85.9836 277° West 386 444 27,400 -1,742 Descending Chicago Center
Sun 04:51:16 PM 43.1700 -86.1225 272° West 379 436 25,600 -1,887 Descending Chicago Center
Sun 04:52:18 PM 43.1656 -86.2842 268° West 363 418 23,500 -1,839 Descending Chicago Center
Sun 04:53:20 PM 43.1639 -86.4169 269° West 355 409 21,800 -1,645 Descending Chicago Center
Sun 04:54:22 PM 43.1619 -86.5497 269° West 351 404 20,100 -1,597 Descending Chicago Center
Sun 04:55:24 PM 43.1600 -86.6781 269° West 341 392 18,500 -1,636 Descending Chicago Center
Sun 04:57:29 PM 43.1539 -86.9544 268° West 329 379 15,000 -1,572 Descending Chicago Center
Sun 04:58:31 PM 43.1514 -87.0761 268° West 322 371 13,600 -1,306 Descending Chicago Center
Sun 04:59:33 PM 43.1478 -87.1864 267° West 293 337 12,300 -1,258 Descending Chicago Center
Sun 05:00:35 PM 43.1464 -87.2878 269° West 272 313 11,000 -1,355 Descending Chicago Center
Sun 05:01:37 PM 43.1428 -87.3914 267° West 257 296 9,500 -1,452 Descending Chicago Center
Sun 05:02:39 PM 43.1397 -87.4856 267° West 250 288 8,000 -1,355 Descending Chicago Center
Sun 05:03:41 PM 43.1383 -87.5797 269° West 247 284 6,700 -1,500 Descending Chicago Center
Sun 05:04:43 PM 43.1378 -87.6817 270° West 232 267 4,900 -1,452 Descending Chicago Center
Sun 05:05:45 PM 43.1403 -87.7697 272° West 231 266 3,700 -1,016 Descending Chicago Center
Sun 05:06:47 PM 43.1253 -87.8403 254° West 208 239 2,800 -439 Descending Chicago Center
Sun 05:07:48 PM 43.0781 -87.8736 207° Southwest 197 227 2,800  Level Chicago Center

Login

Don't have an account? Register now (free) for customized features, flight alerts, and more!